Time;durP1;ratioP1;P1;durP2;ratioP2;P2;SDS_P1;SDS_P2;PMS_P1;PMS_P2;Temp;Humidity;BMP_temperature;BMP_pressure;BME280_temperature;BME280_humidity;BME280_pressure;Samples;Min_cycle;Max_cycle;Signal;HPM_P1;HPM_P2
2024/01/12 00:01:01;;;;;;;21.60;19.17;;;;;;;-4.36;81.35;92714.66;5064209;28;20209;-74
2024/01/12 00:03:27;;;;;;;23.00;18.63;;;;;;;-4.31;82.46;92696.25;5085652;28;20251;-74
2024/01/12 00:05:52;;;;;;;20.83;18.63;;;;;;;-4.33;82.83;92705.84;5079049;28;20181;-75
2024/01/12 00:08:17;;;;;;;19.37;17.17;;;;;;;-4.28;82.75;92683.91;5067144;28;20304;-74
2024/01/12 00:10:43;;;;;;;25.00;20.33;;;;;;;-4.32;82.22;92694.66;5057099;28;20236;-75
2024/01/12 00:13:08;;;;;;;22.63;17.63;;;;;;;-4.37;82.90;92697.00;5057068;28;20221;-75
2024/01/12 00:15:34;;;;;;;24.47;18.10;;;;;;;-4.55;82.16;92686.50;5051118;28;20733;-75
2024/01/12 00:18:00;;;;;;;21.47;19.23;;;;;;;-4.62;82.19;92685.69;5039047;28;20236;-74
2024/01/12 00:20:25;;;;;;;23.13;19.30;;;;;;;-4.68;82.70;92688.94;5044137;28;20265;-75
2024/01/12 00:22:50;;;;;;;23.97;18.90;;;;;;;-4.55;81.54;92691.59;5042810;28;20222;-75
2024/01/12 00:25:16;;;;;;;24.27;19.33;;;;;;;-4.59;83.73;92685.31;5047496;28;20185;-75
2024/01/12 00:27:41;;;;;;;24.63;19.90;;;;;;;-4.59;83.89;92701.34;5046941;28;20213;-75
2024/01/12 00:30:07;;;;;;;28.33;20.80;;;;;;;-4.50;83.01;92712.19;5046701;28;20201;-75
2024/01/12 00:32:35;;;;;;;28.67;18.93;;;;;;;-4.40;82.88;92707.53;5049141;28;20234;-75
2024/01/12 00:35:01;;;;;;;32.73;21.00;;;;;;;-4.35;83.14;92706.03;5037135;28;20182;-75
2024/01/12 00:37:26;;;;;;;42.70;23.03;;;;;;;-4.51;82.32;92690.25;5045668;28;20244;-75
2024/01/12 00:39:51;;;;;;;25.70;20.00;;;;;;;-4.73;83.07;92716.75;5043706;28;20190;-75
2024/01/12 00:42:17;;;;;;;24.43;18.93;;;;;;;-4.21;82.81;92707.66;5034464;28;20226;-74
2024/01/12 00:44:42;;;;;;;18.30;16.37;;;;;;;-4.04;76.94;92695.38;5047588;28;20206;-75
2024/01/12 00:47:07;;;;;;;18.47;16.47;;;;;;;-4.16;77.66;92673.97;5052827;28;20240;-75
2024/01/12 00:49:33;;;;;;;17.80;16.03;;;;;;;-4.26;79.58;92678.63;5055066;28;20181;-74
2024/01/12 00:51:58;;;;;;;18.33;16.53;;;;;;;-4.12;77.50;92708.28;5065204;28;20224;-75
2024/01/12 00:54:26;;;;;;;17.00;15.50;;;;;;;-3.85;74.13;92699.78;5063054;28;20182;-75
2024/01/12 00:56:53;;;;;;;17.93;15.77;;;;;;;-3.74;76.21;92689.06;5064021;28;20272;-75
2024/01/12 00:59:19;;;;;;;15.60;14.07;;;;;;;-3.67;76.81;92700.84;5046937;28;20199;-74
2024/01/12 01:01:44;;;;;;;15.73;14.30;;;;;;;-3.65;74.25;92680.25;5056001;28;20206;-75
2024/01/12 01:04:09;;;;;;;16.60;15.10;;;;;;;-3.58;74.05;92699.69;5046272;28;20217;-74
2024/01/12 01:06:35;;;;;;;17.33;15.67;;;;;;;-3.66;73.43;92681.25;5049101;28;20286;-75
2024/01/12 01:09:00;;;;;;;18.07;15.17;;;;;;;-3.61;73.10;92699.31;5050562;28;20218;-75
2024/01/12 01:11:25;;;;;;;15.50;14.00;;;;;;;-4.17;75.09;92622.22;5050653;28;20186;-75
2024/01/12 01:13:51;;;;;;;17.10;15.37;;;;;;;-3.81;74.87;92665.28;5046871;28;20202;-75
2024/01/12 01:16:17;;;;;;;18.07;15.90;;;;;;;-3.71;74.79;92693.78;5048520;28;20189;-74
2024/01/12 01:18:42;;;;;;;16.20;14.70;;;;;;;-3.66;74.03;92692.19;5051491;28;20222;-75
2024/01/12 01:21:08;;;;;;;15.47;13.83;;;;;;;-3.63;71.27;92683.41;5038921;28;20221;-75
2024/01/12 01:23:33;;;;;;;15.43;14.07;;;;;;;-3.77;72.11;92643.53;5067987;28;20734;-75
2024/01/12 01:25:59;;;;;;;14.17;12.97;;;;;;;-3.36;68.50;92674.81;5068229;28;20194;-75
2024/01/12 01:28:24;;;;;;;15.00;13.80;;;;;;;-3.54;70.02;92674.59;5077473;28;20248;-75
2024/01/12 01:30:50;;;;;;;14.97;13.77;;;;;;;-3.30;64.96;92672.28;5064572;28;20189;-75
2024/01/12 01:33:15;;;;;;;15.10;14.10;;;;;;;-3.36;66.94;92657.75;5056022;28;20237;-75
2024/01/12 01:35:41;;;;;;;14.93;13.47;;;;;;;-3.35;69.89;92666.97;5041128;28;20201;-75
2024/01/12 01:38:06;;;;;;;15.67;14.30;;;;;;;-3.82;71.31;92620.38;5038179;28;20845;-74
2024/01/12 01:40:31;;;;;;;14.63;13.47;;;;;;;-3.59;71.40;92661.63;5040609;28;20206;-75
2024/01/12 01:43:06;;;;;;;13.97;12.87;;;;;;;-3.67;68.73;92626.09;5059094;28;20217;-75
2024/01/12 01:45:33;;;;;;;13.53;12.43;;;;;;;-3.46;68.30;92631.84;5069319;28;20181;-75
2024/01/12 01:47:59;;;;;;;13.53;12.60;;;;;;;-3.45;68.06;92641.06;5066279;28;20221;-75
2024/01/12 01:50:25;;;;;;;12.50;11.40;;;;;;;-3.38;64.81;92641.06;5069213;28;20188;-75
2024/01/12 01:52:50;;;;;;;14.00;13.00;;;;;;;-3.33;66.30;92649.69;5068471;28;20254;-75
2024/01/12 01:55:16;;;;;;;16.70;14.83;;;;;;;-3.50;66.17;92645.94;5063459;28;20190;-75
2024/01/12 01:57:42;;;;;;;13.60;12.43;;;;;;;-3.68;68.00;92637.28;5069363;28;20221;-75
2024/01/12 02:00:12;;;;;;;13.07;11.97;;;;;;;-3.81;68.73;92642.34;5067935;28;20236;-74
2024/01/12 02:02:38;;;;;;;14.20;12.77;;;;;;;-3.62;68.49;92641.59;5056761;28;20247;-75
2024/01/12 02:05:06;;;;;;;12.30;11.50;;;;;;;-3.45;64.30;92635.94;5050346;28;20289;-75
2024/01/12 02:07:33;;;;;;;12.47;11.40;;;;;;;-3.24;59.52;92644.41;5045572;28;20232;-75
2024/01/12 02:09:58;;;;;;;13.10;12.25;;;;;;;-3.63;62.33;92605.09;5043840;28;20235;-75
2024/01/12 02:12:23;;;;;;;12.87;11.93;;;;;;;-3.39;63.00;92644.59;5049611;28;20236;-75
2024/01/12 02:14:49;;;;;;;13.23;12.03;;;;;;;-3.30;60.73;92640.88;5065644;28;20206;-75
2024/01/12 02:17:14;;;;;;;14.23;13.07;;;;;;;-3.49;63.26;92631.44;5063781;28;20218;-75
2024/01/12 02:19:39;;;;;;;16.03;14.80;;;;;;;-3.41;65.44;92638.91;5041457;28;20202;-75
2024/01/12 02:22:05;;;;;;;14.90;13.37;;;;;;;-3.45;63.88;92651.25;5041167;28;20242;-75
2024/01/12 02:24:30;;;;;;;14.40;13.33;;;;;;;-3.49;67.60;92647.50;5043590;28;20178;-75
2024/01/12 02:26:55;;;;;;;13.27;12.17;;;;;;;-3.56;67.20;92651.03;5048413;28;20226;-75
2024/01/12 02:29:21;;;;;;;12.83;11.83;;;;;;;-3.91;67.66;92652.91;5050986;28;20195;-74
2024/01/12 02:31:49;;;;;;;13.57;12.47;;;;;;;-3.67;69.45;92641.38;5048802;28;20307;-74
2024/01/12 02:34:14;;;;;;;12.33;11.37;;;;;;;-3.63;68.18;92625.50;5046497;28;20171;-74
2024/01/12 02:36:40;;;;;;;11.93;11.17;;;;;;;-3.50;68.35;92634.94;5046825;28;20285;-75
2024/01/12 02:39:05;;;;;;;12.83;11.83;;;;;;;-3.63;67.02;92606.88;5047572;28;20189;-75
2024/01/12 02:41:30;;;;;;;14.13;12.93;;;;;;;-3.28;61.10;92628.69;5049771;28;20206;-75
2024/01/12 02:43:56;;;;;;;15.20;14.00;;;;;;;-3.29;62.61;92622.03;5069388;28;20183;-75
2024/01/12 02:46:21;;;;;;;14.43;13.33;;;;;;;-3.45;65.28;92612.19;5070060;28;20788;-74
2024/01/12 02:48:46;;;;;;;13.50;12.30;;;;;;;-3.33;66.29;92628.50;5041946;28;20246;-75
2024/01/12 02:51:12;;;;;;;13.47;12.47;;;;;;;-3.47;65.58;92614.19;5044719;28;20221;-75
2024/01/12 02:53:37;;;;;;;12.40;11.30;;;;;;;-3.28;67.13;92638.91;5049828;28;20218;-76
2024/01/12 02:56:03;;;;;;;13.63;12.63;;;;;;;-3.36;66.97;92651.84;5046085;28;20186;-75
2024/01/12 02:58:28;;;;;;;13.80;12.50;;;;;;;-3.46;67.66;92636.94;5065075;28;20296;-76
2024/01/12 03:00:53;;;;;;;13.43;12.27;;;;;;;-3.78;66.89;92617.25;5066745;28;20385;-75
2024/01/12 03:03:19;;;;;;;12.93;11.63;;;;;;;-3.64;67.10;92658.84;5066375;28;20218;-75
2024/01/12 03:05:45;;;;;;;13.03;11.90;;;;;;;-3.47;67.23;92639.69;5062572;28;20200;-75
2024/01/12 03:08:10;;;;;;;14.57;13.17;;;;;;;-3.77;67.85;92633.34;5058332;28;20282;-75
2024/01/12 03:10:36;;;;;;;13.63;12.47;;;;;;;-3.81;68.32;92647.44;5068590;28;20186;-75
2024/01/12 03:13:02;;;;;;;14.53;13.10;;;;;;;-4.35;66.44;92604.13;5060128;28;20435;-76
2024/01/12 03:15:27;;;;;;;14.80;13.47;;;;;;;-4.03;68.79;92607.78;5069128;28;20245;-74
2024/01/12 03:17:53;;;;;;;13.87;12.67;;;;;;;-3.65;68.90;92636.88;5066247;28;20762;-75
2024/01/12 03:20:18;;;;;;;14.73;13.27;;;;;;;-3.76;69.97;92619.59;5063966;28;20209;-74
2024/01/12 03:22:43;;;;;;;14.77;13.57;;;;;;;-3.83;71.30;92614.47;5053230;28;20222;-75
2024/01/12 03:25:09;;;;;;;14.80;13.30;;;;;;;-3.88;70.42;92628.78;5047475;28;20187;-74
2024/01/12 03:27:34;;;;;;;14.73;13.50;;;;;;;-3.93;71.58;92628.56;5047559;28;20233;-75
2024/01/12 03:29:59;;;;;;;14.53;13.30;;;;;;;-3.90;71.99;92618.00;5047416;28;20194;-75
2024/01/12 03:32:25;;;;;;;15.43;13.87;;;;;;;-3.65;70.17;92644.53;5059948;28;20217;-75
2024/01/12 03:34:50;;;;;;;14.13;12.73;;;;;;;-4.10;71.30;92637.53;5059119;28;20178;-75
2024/01/12 03:37:15;;;;;;;16.33;14.83;;;;;;;-3.93;72.46;92644.66;5059088;28;20218;-74
2024/01/12 03:39:41;;;;;;;17.23;15.23;;;;;;;-4.11;72.65;92613.03;5065202;28;20269;-75
2024/01/12 03:42:08;;;;;;;17.17;15.50;;;;;;;-4.01;72.00;92642.28;5065895;28;20225;-76
2024/01/12 03:44:33;;;;;;;17.83;16.13;;;;;;;-3.84;71.67;92635.84;5063826;28;20174;-75
2024/01/12 03:46:59;;;;;;;15.87;14.43;;;;;;;-4.01;72.32;92626.97;5065158;28;20228;-75
2024/01/12 03:49:24;;;;;;;15.97;14.10;;;;;;;-4.16;72.57;92608.50;5060656;28;20189;-74
2024/01/12 03:51:53;;;;;;;16.27;14.60;;;;;;;-3.84;71.85;92623.13;5067629;28;20270;-75
2024/01/12 03:54:22;;;;;;;15.93;14.47;;;;;;;-4.01;72.27;92593.06;5068379;28;20189;-75
2024/01/12 03:56:47;;;;;;;17.23;15.30;;;;;;;-4.05;73.30;92599.53;5068348;28;20240;-76
2024/01/12 03:59:13;;;;;;;16.30;14.80;;;;;;;-3.94;73.91;92612.47;5066352;28;20189;-75
2024/01/12 04:01:45;;;;;;;18.27;15.93;;;;;;;-3.98;73.40;92613.84;5057690;28;20214;-75
2024/01/12 04:04:11;;;;;;;16.70;15.10;;;;;;;-4.02;74.09;92601.69;5059657;28;20178;-75
2024/01/12 04:06:37;;;;;;;14.30;13.23;;;;;;;-3.98;73.47;92615.59;5067732;28;20227;-74
2024/01/12 04:09:02;;;;;;;16.03;14.43;;;;;;;-4.08;73.09;92610.91;5061846;28;20205;-75
2024/01/12 04:11:28;;;;;;;15.50;14.00;;;;;;;-3.81;73.13;92593.88;5066935;28;20710;-75
2024/01/12 04:13:53;;;;;;;15.27;13.97;;;;;;;-3.92;73.08;92609.78;5064196;28;20182;-75
2024/01/12 04:16:20;;;;;;;13.87;12.77;;;;;;;-3.68;73.14;92596.47;5066988;28;20204;-75
2024/01/12 04:18:45;;;;;;;15.73;14.13;;;;;;;-3.77;71.48;92584.88;5057171;28;20229;-75
2024/01/12 04:21:10;;;;;;;15.10;13.57;;;;;;;-3.49;70.42;92611.03;5071233;28;20264;-74
2024/01/12 04:23:37;;;;;;;16.63;14.97;;;;;;;-3.17;69.48;92614.56;5060609;28;20229;-75
2024/01/12 04:26:03;;;;;;;17.10;15.17;;;;;;;-3.15;69.69;92623.63;5061228;28;20191;-75
2024/01/12 04:28:28;;;;;;;16.37;14.30;;;;;;;-3.08;69.36;92629.50;5061572;28;20245;-75
2024/01/12 04:30:53;;;;;;;14.43;13.23;;;;;;;-3.30;65.66;92605.16;5067425;28;20212;-75
2024/01/12 04:33:19;;;;;;;13.40;12.43;;;;;;;-2.98;62.17;92624.78;5044468;28;20226;-75
2024/01/12 04:35:44;;;;;;;14.00;12.90;;;;;;;-3.07;62.19;92638.75;5035792;28;20214;-74
2024/01/12 04:38:11;;;;;;;13.83;12.50;;;;;;;-2.75;61.46;92640.47;5047105;28;20218;-74
2024/01/12 04:40:36;;;;;;;13.53;12.53;;;;;;;-2.69;62.81;92616.69;5038396;28;20291;-75
2024/01/12 04:43:03;;;;;;;14.97;13.37;;;;;;;-2.75;64.16;92617.50;5044171;28;20218;-76
2024/01/12 04:45:28;;;;;;;14.70;13.57;;;;;;;-2.85;61.72;92590.78;5049014;28;20279;-77
2024/01/12 04:47:54;;;;;;;13.60;12.30;;;;;;;-2.42;62.08;92636.13;5049151;28;20256;-76
2024/01/12 04:50:20;;;;;;;14.60;13.07;;;;;;;-2.14;61.32;92618.72;5048960;28;20187;-83
2024/01/12 04:52:45;;;;;;;14.07;12.73;;;;;;;-2.28;64.36;92601.88;5053625;28;20222;-81
2024/01/12 04:55:10;;;;;;;14.87;13.47;;;;;;;-2.09;63.95;92630.91;5050511;28;20186;-86
2024/01/12 04:57:36;;;;;;;15.23;13.83;;;;;;;-2.34;64.94;92607.78;5054200;28;20221;-82
2024/01/12 05:00:01;;;;;;;15.70;14.20;;;;;;;-2.14;67.55;92639.19;5044273;28;20190;-80
2024/01/12 05:02:26;;;;;;;16.37;14.53;;;;;;;-2.14;68.15;92630.72;5044403;28;20320;-79
2024/01/12 05:04:52;;;;;;;16.67;14.63;;;;;;;-2.24;68.95;92630.38;5050300;28;20193;-78
2024/01/12 05:07:17;;;;;;;21.10;15.93;;;;;;;-2.34;67.57;92646.13;5051295;28;20222;-75
2024/01/12 05:09:42;;;;;;;16.50;14.80;;;;;;;-2.24;64.00;92651.59;5070885;28;20197;-75
2024/01/12 05:12:08;;;;;;;16.53;14.93;;;;;;;-2.30;64.55;92654.16;5068789;28;20707;-75
2024/01/12 05:14:33;;;;;;;17.73;15.87;;;;;;;-2.43;64.22;92654.97;5069397;28;20253;-79
2024/01/12 05:16:59;;;;;;;17.13;15.03;;;;;;;-2.80;66.63;92632.63;5063074;28;20278;-83
2024/01/12 05:19:24;;;;;;;16.10;14.40;;;;;;;-3.00;66.57;92652.28;5053565;28;20197;-86
2024/01/12 05:21:49;;;;;;;16.67;15.37;;;;;;;-3.35;65.35;92663.66;5061016;28;20230;-86
2024/01/12 05:24:16;;;;;;;14.93;13.73;;;;;;;-3.52;66.54;92658.09;5048644;28;20185;-79
2024/01/12 05:26:42;;;;;;;15.30;13.53;;;;;;;-3.76;66.96;92640.00;5038278;28;20254;-83
2024/01/12 05:29:08;;;;;;;17.30;15.50;;;;;;;-3.71;67.47;92661.41;5044782;28;20179;-80
2024/01/12 05:31:34;;;;;;;15.70;14.10;;;;;;;-3.82;68.62;92649.22;5046108;28;20201;-80
2024/01/12 05:33:59;;;;;;;16.13;14.50;;;;;;;-3.67;69.12;92659.25;5048624;28;20213;-82
2024/01/12 05:36:24;;;;;;;17.40;15.57;;;;;;;-4.11;69.84;92653.81;5049297;28;20182;-81
2024/01/12 05:38:50;;;;;;;17.60;15.93;;;;;;;-4.09;70.36;92654.38;5036922;28;20245;-85
2024/01/12 05:41:15;;;;;;;17.90;16.13;;;;;;;-3.80;73.36;92674.53;5048053;28;20242;-79
2024/01/12 05:43:40;;;;;;;17.37;15.20;;;;;;;-4.20;70.96;92637.88;5066984;28;20240;-81
2024/01/12 05:46:07;;;;;;;17.50;15.70;;;;;;;-4.01;70.53;92661.88;5067592;28;20187;-79
2024/01/12 05:48:33;;;;;;;19.30;17.13;;;;;;;-4.24;70.25;92620.63;5063678;28;20241;-77
2024/01/12 05:50:58;;;;;;;19.33;17.43;;;;;;;-4.20;69.12;92627.69;5062492;28;20185;-79
2024/01/12 05:53:25;;;;;;;18.83;16.17;;;;;;;-3.87;67.71;92668.59;5050390;28;20290;-76
2024/01/12 05:55:52;;;;;;;17.33;15.50;;;;;;;-3.94;67.93;92667.81;5047872;28;20265;-81
2024/01/12 05:58:19;;;;;;;18.67;16.77;;;;;;;-3.77;69.90;92630.78;5049003;28;20218;-78
2024/01/12 06:00:45;;;;;;;15.97;14.37;;;;;;;-3.74;66.12;92668.66;5048741;28;20214;-78
2024/01/12 06:03:10;;;;;;;16.90;15.23;;;;;;;-3.72;66.57;92656.50;5053991;28;20233;-77
2024/01/12 06:05:35;;;;;;;15.07;13.63;;;;;;;-3.56;62.03;92676.53;5060619;28;20957;-78
2024/01/12 06:08:01;;;;;;;16.73;15.13;;;;;;;-3.43;62.55;92666.38;5064248;28;20240;-76
2024/01/12 06:10:26;;;;;;;16.83;15.13;;;;;;;-3.58;64.10;92663.22;5068560;28;20210;-77
2024/01/12 06:12:53;;;;;;;17.07;15.27;;;;;;;-3.59;64.13;92646.31;5066464;28;20257;-78
2024/01/12 06:15:19;;;;;;;15.67;14.37;;;;;;;-3.49;63.88;92673.03;5064276;28;20182;-77
2024/01/12 06:17:44;;;;;;;12.73;11.63;;;;;;;-3.09;57.87;92680.75;5047961;28;20294;-77
2024/01/12 06:20:10;;;;;;;12.87;11.97;;;;;;;-2.98;59.01;92665.63;5050136;28;20868;-78
2024/01/12 06:22:35;;;;;;;13.17;12.27;;;;;;;-2.93;55.07;92683.72;5046101;28;20213;-77
2024/01/12 06:25:01;;;;;;;13.17;12.37;;;;;;;-2.84;55.51;92672.31;5049922;28;20182;-77
2024/01/12 06:27:26;;;;;;;14.27;13.27;;;;;;;-2.92;54.28;92658.94;5049138;28;20222;-76
2024/01/12 06:29:51;;;;;;;13.17;12.17;;;;;;;-2.90;53.81;92690.97;5048050;28;20220;-77
2024/01/12 06:32:17;;;;;;;12.83;11.97;;;;;;;-2.91;54.59;92691.19;5035174;28;20226;-76
2024/01/12 06:34:42;;;;;;;11.87;11.07;;;;;;;-3.08;54.80;92667.78;5048741;28;20189;-76
2024/01/12 06:37:07;;;;;;;13.17;12.07;;;;;;;-2.96;55.28;92691.78;5047678;28;20226;-76
2024/01/12 06:39:33;;;;;;;12.93;12.10;;;;;;;-3.16;56.52;92685.06;5050613;28;20185;-75
2024/01/12 06:41:58;;;;;;;14.40;12.77;;;;;;;-3.48;58.72;92684.81;5043462;28;20233;-74
2024/01/12 06:44:24;;;;;;;14.83;13.43;;;;;;;-3.49;59.95;92683.22;5049849;28;20258;-73
2024/01/12 06:46:49;;;;;;;14.00;12.73;;;;;;;-3.50;60.30;92691.06;5046523;28;20245;-75
2024/01/12 06:49:15;;;;;;;14.37;12.97;;;;;;;-3.66;61.52;92694.75;5048772;28;20186;-73
2024/01/12 06:51:40;;;;;;;14.47;13.37;;;;;;;-3.57;61.20;92695.38;5046610;28;20237;-73
2024/01/12 06:54:05;;;;;;;18.43;15.33;;;;;;;-3.46;60.74;92689.72;5046049;28;20201;-73
2024/01/12 06:56:32;;;;;;;16.13;14.10;;;;;;;-3.47;62.14;92683.06;5048032;28;20192;-74
2024/01/12 06:58:57;;;;;;;17.70;15.53;;;;;;;-3.45;61.88;92681.09;5068988;28;20173;-73
2024/01/12 07:01:23;;;;;;;14.33;13.13;;;;;;;-3.45;61.57;92686.19;5065043;28;20217;-74
2024/01/12 07:03:48;;;;;;;16.03;14.87;;;;;;;-3.46;60.83;92684.63;5049180;28;20229;-73
2024/01/12 07:06:13;;;;;;;15.73;14.33;;;;;;;-3.15;61.07;92695.09;5048392;28;20174;-74
2024/01/12 07:08:39;;;;;;;12.93;11.90;;;;;;;-3.32;61.05;92697.22;5067004;28;20228;-73
2024/01/12 07:11:06;;;;;;;14.30;12.90;;;;;;;-3.28;61.21;92705.25;5064704;28;20238;-72
2024/01/12 07:13:32;;;;;;;14.93;13.83;;;;;;;-3.27;60.94;92689.00;5066979;28;20224;-72
2024/01/12 07:15:57;;;;;;;14.97;13.63;;;;;;;-3.50;61.75;92680.88;5068204;28;20193;-73
2024/01/12 07:18:22;;;;;;;13.87;12.63;;;;;;;-3.35;61.55;92712.13;5065909;28;20294;-76
2024/01/12 07:20:48;;;;;;;17.40;15.83;;;;;;;-3.42;62.48;92696.81;5063358;28;20295;-73
2024/01/12 07:23:13;;;;;;;17.10;15.50;;;;;;;-3.46;62.86;92692.28;5067446;28;20232;-73
2024/01/12 07:25:38;;;;;;;14.80;13.40;;;;;;;-3.33;61.41;92693.09;5055766;28;20178;-75
2024/01/12 07:28:05;;;;;;;14.93;13.53;;;;;;;-3.06;60.45;92713.53;5053972;28;20244;-75
2024/01/12 07:30:31;;;;;;;14.40;13.30;;;;;;;-3.06;61.33;92729.66;5048449;28;20186;-73
2024/01/12 07:32:56;;;;;;;14.87;13.43;;;;;;;-2.99;61.99;92733.03;5042879;28;20284;-73
2024/01/12 07:35:21;;;;;;;15.07;13.80;;;;;;;-3.07;60.86;92717.88;5029819;28;20182;-73
2024/01/12 07:37:47;;;;;;;16.00;14.50;;;;;;;-3.22;61.35;92731.78;5054590;28;20232;-74
2024/01/12 07:40:12;;;;;;;14.30;13.20;;;;;;;-3.24;61.74;92711.56;5062223;28;20271;-73
2024/01/12 07:42:38;;;;;;;17.60;15.93;;;;;;;-3.19;62.34;92739.81;5067827;28;20213;-73
2024/01/12 07:45:04;;;;;;;17.57;15.97;;;;;;;-3.19;63.46;92732.16;5062542;28;20194;-73
2024/01/12 07:47:29;;;;;;;21.23;15.47;;;;;;;-3.28;63.46;92729.03;5062100;28;20225;-73
2024/01/12 07:49:55;;;;;;;16.80;15.10;;;;;;;-3.32;64.47;92709.19;5031004;28;20792;-74
2024/01/12 07:52:20;;;;;;;17.97;16.23;;;;;;;-3.10;64.95;92764.22;5046183;28;20237;-73
2024/01/12 07:54:46;;;;;;;17.27;15.47;;;;;;;-3.05;64.79;92766.19;5041892;28;20194;-73
2024/01/12 07:57:11;;;;;;;17.20;15.63;;;;;;;-3.05;65.58;92746.53;5046262;28;20218;-73
2024/01/12 07:59:36;;;;;;;15.60;14.03;;;;;;;-2.78;64.07;92773.69;5036060;28;20273;-73
2024/01/12 08:02:02;;;;;;;16.87;14.63;;;;;;;-2.98;65.76;92778.00;5053714;28;20232;-73
2024/01/12 08:04:27;;;;;;;17.20;15.00;;;;;;;-3.17;63.52;92758.28;5068124;28;20186;-73
2024/01/12 08:06:53;;;;;;;19.83;14.07;;;;;;;-3.17;64.60;92765.97;5070494;28;20240;-73
2024/01/12 08:09:18;;;;;;;13.17;12.07;;;;;;;-3.15;63.63;92766.56;5065761;28;20245;-73
2024/01/12 08:11:43;;;;;;;16.47;14.97;;;;;;;-3.01;65.43;92778.38;5068207;28;20192;-73
2024/01/12 08:14:09;;;;;;;16.83;15.10;;;;;;;-2.90;64.80;92777.00;5059367;28;20204;-74
2024/01/12 08:16:34;;;;;;;16.97;15.33;;;;;;;-3.22;65.95;92730.00;5064873;28;20215;-73
2024/01/12 08:19:00;;;;;;;18.17;16.37;;;;;;;-3.04;65.86;92776.22;5050867;28;20190;-73
2024/01/12 08:21:25;;;;;;;19.97;15.40;;;;;;;-2.93;66.00;92780.75;5063575;28;20224;-74
2024/01/12 08:23:51;;;;;;;18.43;14.83;;;;;;;-3.07;65.87;92755.38;5068806;28;20271;-73
2024/01/12 08:26:19;;;;;;;23.03;14.90;;;;;;;-2.91;67.19;92783.13;5075708;28;20193;-73
2024/01/12 08:28:45;;;;;;;17.90;15.77;;;;;;;-2.86;67.68;92778.22;5060285;28;20237;-74
2024/01/12 08:31:10;;;;;;;17.57;15.73;;;;;;;-2.84;67.43;92753.25;5059760;28;20242;-73
2024/01/12 08:33:37;;;;;;;21.90;16.27;;;;;;;-2.70;67.03;92785.50;5049571;28;20225;-73
2024/01/12 08:36:03;;;;;;;19.43;16.47;;;;;;;-2.67;66.77;92792.75;5047949;28;20178;-73
2024/01/12 08:38:29;;;;;;;19.90;16.53;;;;;;;-3.05;68.95;92802.69;5042084;28;20225;-73
2024/01/12 08:40:55;;;;;;;19.47;16.77;;;;;;;-2.98;70.19;92802.72;5048768;28;20202;-73
2024/01/12 08:43:20;;;;;;;21.03;18.90;;;;;;;-2.98;70.96;92811.19;5044308;28;20228;-73
2024/01/12 08:45:46;;;;;;;24.30;19.07;;;;;;;-3.08;75.95;92805.63;5047699;28;20314;-73
2024/01/12 08:48:11;;;;;;;20.77;17.53;;;;;;;-3.15;72.35;92822.72;5047258;28;20226;-73
2024/01/12 08:50:37;;;;;;;28.80;19.43;;;;;;;-2.96;73.46;92818.66;5047809;28;20190;-74
2024/01/12 08:53:03;;;;;;;21.80;18.13;;;;;;;-2.98;73.54;92790.75;5060787;28;20237;-73
2024/01/12 08:55:28;;;;;;;22.00;18.17;;;;;;;-2.86;72.93;92811.41;5067616;28;20205;-73
2024/01/12 08:57:54;;;;;;;22.53;17.40;;;;;;;-2.73;74.15;92813.97;5066723;28;20225;-73
2024/01/12 09:00:19;;;;;;;21.70;17.07;;;;;;;-3.03;74.08;92810.16;5068511;28;20193;-74
2024/01/12 09:02:44;;;;;;;20.63;18.50;;;;;;;-3.22;75.38;92823.69;5065390;28;20209;-74
2024/01/12 09:05:11;;;;;;;25.67;19.37;;;;;;;-3.29;76.63;92813.44;5064768;28;20166;-73
2024/01/12 09:07:36;;;;;;;18.77;16.80;;;;;;;-3.36;76.04;92808.31;5061781;28;20213;-73
2024/01/12 09:10:02;;;;;;;25.57;19.13;;;;;;;-3.34;76.13;92813.22;5063570;28;20240;-73
2024/01/12 09:12:28;;;;;;;24.53;18.93;;;;;;;-3.52;77.72;92790.75;5057324;28;20241;-74
2024/01/12 09:14:53;;;;;;;24.53;18.37;;;;;;;-3.53;77.31;92771.34;5057970;28;20227;-74
2024/01/12 09:17:19;;;;;;;28.70;20.80;;;;;;;-3.14;76.92;92824.28;5060522;28;20214;-75
2024/01/12 09:19:44;;;;;;;24.33;19.07;;;;;;;-3.23;77.35;92811.88;5066051;28;20241;-74
2024/01/12 09:22:11;;;;;;;29.23;19.67;;;;;;;-2.98;76.68;92852.03;5061312;28;20226;-74
2024/01/12 09:24:36;;;;;;;33.17;20.37;;;;;;;-3.19;77.39;92841.94;5066951;28;20241;-74
2024/01/12 09:27:02;;;;;;;26.90;21.13;;;;;;;-3.13;78.32;92828.44;5067597;28;20225;-74
2024/01/12 09:29:27;;;;;;;30.53;19.00;;;;;;;-3.19;78.10;92830.94;5069578;28;20174;-74
2024/01/12 09:31:52;;;;;;;28.27;21.50;;;;;;;-3.39;79.51;92813.00;5060785;28;20222;-73
2024/01/12 09:34:18;;;;;;;29.50;21.83;;;;;;;-3.29;78.33;92805.78;5062689;28;20189;-73
2024/01/12 09:36:43;;;;;;;34.30;22.20;;;;;;;-3.28;78.40;92820.09;5064800;28;20243;-76
2024/01/12 09:39:14;;;;;;;25.47;19.20;;;;;;;-3.31;79.18;92823.03;5063283;28;20840;-76
2024/01/12 09:41:47;;;;;;;37.23;21.03;;;;;;;-3.45;79.77;92814.56;5071359;28;20209;-75
2024/01/12 09:44:18;;;;;;;30.23;20.87;;;;;;;-3.41;80.83;92818.28;5070392;28;20182;-75
2024/01/12 09:46:56;;;;;;;36.37;22.47;;;;;;;-3.30;81.44;92804.97;5068119;28;20192;-76
2024/01/12 09:49:23;;;;;;;25.33;20.90;;;;;;;-3.12;80.60;92831.75;5041485;28;20704;-76
2024/01/12 09:51:49;;;;;;;33.27;22.03;;;;;;;-2.88;79.30;92819.25;5049000;28;20289;-76
2024/01/12 09:54:14;;;;;;;26.37;21.30;;;;;;;-3.17;78.62;92799.13;5043275;28;20205;-75
2024/01/12 09:56:40;;;;;;;33.20;22.33;;;;;;;-2.99;79.92;92826.69;5051768;28;20206;-76
2024/01/12 09:59:06;;;;;;;32.30;22.73;;;;;;;-3.10;81.72;92814.47;5073967;28;20224;-75
2024/01/12 10:01:32;;;;;;;26.13;19.80;;;;;;;-3.08;79.02;92820.97;5068697;28;20205;-76
2024/01/12 10:03:58;;;;;;;34.30;21.67;;;;;;;-3.18;79.93;92810.34;5065301;28;20185;-75
2024/01/12 10:06:25;;;;;;;29.63;21.17;;;;;;;-2.91;79.62;92829.84;5069646;28;20209;-73
2024/01/12 10:08:50;;;;;;;33.97;21.37;;;;;;;-3.23;80.21;92817.78;5069099;28;20252;-77
2024/01/12 10:11:15;;;;;;;31.60;21.73;;;;;;;-2.87;80.64;92828.50;5067658;28;20170;-75
2024/01/12 10:13:41;;;;;;;37.03;23.80;;;;;;;-3.28;80.75;92809.91;5078337;28;20218;-75
2024/01/12 10:16:07;;;;;;;38.63;21.80;;;;;;;-3.02;80.27;92832.19;5066489;28;20189;-77
2024/01/12 10:18:33;;;;;;;26.10;18.80;;;;;;;-2.92;79.06;92814.72;5064710;28;20240;-75
2024/01/12 10:20:59;;;;;;;29.93;21.67;;;;;;;-2.76;80.07;92822.84;5068066;28;21085;-74
2024/01/12 10:23:26;;;;;;;23.00;19.57;;;;;;;-2.71;79.01;92827.34;5069803;28;20255;-74
2024/01/12 10:25:59;;;;;;;36.80;21.53;;;;;;;-2.61;78.63;92828.53;5064122;28;20188;-73
2024/01/12 10:28:29;;;;;;;28.73;20.50;;;;;;;-2.55;79.51;92834.66;5039072;28;20262;-77
2024/01/12 10:30:54;;;;;;;30.33;22.57;;;;;;;-2.75;79.37;92844.81;5049708;28;20214;-78
2024/01/12 10:33:20;;;;;;;28.43;20.00;;;;;;;-2.83;79.13;92827.13;5042446;28;20223;-77
2024/01/12 10:35:51;;;;;;;29.07;20.80;;;;;;;-2.64;79.54;92835.81;5046701;28;20190;-78
2024/01/12 10:38:18;;;;;;;31.67;21.57;;;;;;;-2.96;80.09;92796.47;5059238;28;20252;-77
2024/01/12 10:40:44;;;;;;;26.00;19.53;;;;;;;-2.70;79.58;92827.16;5064598;28;20235;-78
2024/01/12 10:43:16;;;;;;;33.40;21.27;;;;;;;-2.66;79.89;92838.56;5060439;28;20984;-77
2024/01/12 10:45:44;;;;;;;32.83;21.90;;;;;;;-2.78;79.83;92834.19;5068972;28;20177;-78
2024/01/12 10:48:11;;;;;;;28.93;20.23;;;;;;;-2.81;80.89;92837.94;5048798;28;20237;-78
2024/01/12 10:50:42;;;;;;;28.97;21.87;;;;;;;-2.87;80.48;92808.06;5048567;28;20177;-78
2024/01/12 10:53:23;;;;;;;34.13;22.20;;;;;;;-2.65;80.44;92824.81;5046831;28;20221;-76
2024/01/12 10:55:54;;;;;;;28.20;20.30;;;;;;;-2.69;80.54;92836.38;5048095;28;20340;-75
2024/01/12 10:58:21;;;;;;;28.93;21.50;;;;;;;-2.85;81.65;92834.22;5064282;28;20209;-75
2024/01/12 11:00:47;;;;;;;33.77;20.80;;;;;;;-2.69;81.18;92828.72;5058494;28;20222;-74
2024/01/12 11:03:17;;;;;;;38.47;22.00;;;;;;;-2.70;80.81;92808.47;5053526;28;20238;-76
2024/01/12 11:05:44;;;;;;;31.63;21.30;;;;;;;-2.70;80.63;92824.59;5043198;28;20186;-77
2024/01/12 11:08:11;;;;;;;32.70;20.67;;;;;;;-2.57;81.71;92826.41;5062820;28;20221;-76
2024/01/12 11:10:46;;;;;;;31.40;22.23;;;;;;;-2.65;81.11;92819.72;5062936;28;20244;-76